Time;durP1;ratioP1;P1;durP2;ratioP2;P2;SDS_P1;SDS_P2;PMS_P1;PMS_P2;Temp;Humidity;BMP_temperature;BMP_pressure;BME280_temperature;BME280_humidity;BME280_pressure;Samples;Min_cycle;Max_cycle;Signal;HPM_P1;HPM_P2
2022/12/15 15:03:13;;;;;;;50.42;22.77;;;-3276.00;79.80;;;;;;5111189;27;20161;-58
2022/12/15 15:05:41;;;;;;;51.53;24.45;;;-3276.00;80.00;;;;;;5110495;28;20020;-59
2022/12/15 15:08:17;;;;;;;56.72;26.58;;;-3276.10;80.10;;;;;;5110145;28;20098;-60
2022/12/15 15:10:43;;;;;;;55.30;27.02;;;-3276.10;80.20;;;;;;5108970;28;20328;-56
2022/12/15 15:13:21;;;;;;;53.83;25.92;;;-3276.20;80.10;;;;;;5109157;28;20024;-60
2022/12/15 15:15:59;;;;;;;57.08;26.45;;;-3276.10;80.30;;;;;;5111282;28;20042;-60
2022/12/15 15:18:26;;;;;;;65.22;29.05;;;-3276.10;80.40;;;;;;5110904;28;20030;-55
2022/12/15 15:21:05;;;;;;;63.85;30.45;;;-3276.10;80.80;;;;;;5108517;28;20072;-57
2022/12/15 15:23:32;;;;;;;67.95;29.08;;;-3276.10;80.90;;;;;;5110726;28;20031;-62
2022/12/15 15:26:03;;;;;;;68.20;30.98;;;-3276.10;81.10;;;;;;5111871;28;20020;-58
2022/12/15 15:28:41;;;;;;;62.95;32.20;;;-3276.10;81.30;;;;;;5110237;28;20015;-58
2022/12/15 15:31:36;;;;;;;61.08;30.95;;;-3276.10;81.50;;;;;;5110329;28;20475;-58
2022/12/15 15:34:02;;;;;;;66.35;29.38;;;-3276.00;81.60;;;;;;5110476;28;20028;-58
2022/12/15 15:36:36;;;;;;;65.90;28.88;;;-3275.90;81.70;;;;;;5110175;28;20506;-60
2022/12/15 15:39:08;;;;;;;54.15;26.25;;;-3275.90;81.80;;;;;;5110377;28;20034;-59
2022/12/15 15:41:36;;;;;;;65.40;32.55;;;-3275.90;81.80;;;;;;5110327;28;20024;-58
2022/12/15 15:44:13;;;;;;;57.30;29.70;;;-3275.90;81.50;;;;;;5110813;28;20408;-58
2022/12/15 15:46:50;;;;;;;65.65;30.88;;;-3275.80;81.70;;;;;;5110565;28;20103;-62
2022/12/15 15:49:19;;;;;;;62.67;30.63;;;-3276.00;81.40;;;;;;5110068;28;20089;-61
2022/12/15 15:51:45;;;;;;;63.83;30.25;;;-3276.00;81.10;;;;;;5109835;28;20031;-59
2022/12/15 15:54:15;;;;;;;66.65;31.58;;;-3275.90;81.20;;;;;;5110314;28;20028;-56
2022/12/15 15:56:40;;;;;;;59.17;29.98;;;-3275.70;81.70;;;;;;5110282;28;20028;-54
2022/12/15 15:59:25;;;;;;;69.25;32.53;;;-3275.80;81.80;;;;;;5109911;28;20380;-55
2022/12/15 16:01:54;;;;;;;62.05;28.58;;;-3275.90;81.70;;;;;;5109719;28;20468;-60
2022/12/15 16:04:20;;;;;;;66.53;30.40;;;-3275.70;81.70;;;;;;5110109;28;20485;-61
2022/12/15 16:06:50;;;;;;;59.90;29.75;;;-3275.60;82.10;;;;;;5110257;28;20055;-58
2022/12/15 16:09:16;;;;;;;65.88;32.33;;;-3275.50;82.40;;;;;;5109272;28;20028;-57
2022/12/15 16:11:43;;;;;;;63.05;31.48;;;-3275.40;82.80;;;;;;5108865;28;20649;-60
2022/12/15 16:14:16;;;;;;;75.78;31.83;;;-3275.30;83.00;;;;;;5098268;28;20020;-57
2022/12/15 16:16:43;;;;;;;63.55;31.08;;;-3275.20;83.30;;;;;;5096137;28;20418;-58
2022/12/15 16:19:10;;;;;;;68.63;29.25;;;-3275.20;83.60;;;;;;5095841;28;20048;-58
2022/12/15 16:21:37;;;;;;;64.85;31.35;;;-3275.20;83.80;;;;;;5094499;28;20059;-58
2022/12/15 16:24:08;;;;;;;68.20;31.55;;;-3275.20;84.10;;;;;;5095501;28;20466;-57
2022/12/15 16:26:37;;;;;;;61.28;29.77;;;-3275.00;84.20;;;;;;5095752;28;20024;-56
2022/12/15 16:29:17;;;;;;;80.88;33.70;;;-3275.10;84.90;;;;;;5095958;28;20020;-59
2022/12/15 16:31:46;;;;;;;68.67;31.80;;;-3275.10;84.50;;;;;;5094675;28;20020;-58
2022/12/15 16:34:15;;;;;;;64.30;31.20;;;-3275.20;84.30;;;;;;5095619;28;20362;-59
2022/12/15 16:36:41;;;;;;;66.35;31.45;;;-3275.20;84.10;;;;;;5095558;28;20034;-57
2022/12/15 16:39:24;;;;;;;66.28;30.88;;;-3275.10;84.20;;;;;;5095420;28;20118;-59
2022/12/15 16:41:52;;;;;;;65.10;31.00;;;-3275.10;84.40;;;;;;5094025;28;20024;-60
2022/12/15 16:44:18;;;;;;;72.72;30.15;;;-3274.90;84.40;;;;;;5095529;28;20040;-56
2022/12/15 16:46:44;;;;;;;68.82;30.50;;;-3274.90;84.70;;;;;;5095141;28;20059;-61
2022/12/15 16:49:10;;;;;;;76.70;35.13;;;-3274.80;84.90;;;;;;5094007;28;20121;-62
2022/12/15 16:51:41;;;;;;;66.20;33.40;;;-3274.80;84.90;;;;;;5095410;28;20024;-59
2022/12/15 16:54:11;;;;;;;83.88;35.97;;;-3274.70;85.10;;;;;;5095260;28;20073;-58
2022/12/15 16:56:36;;;;;;;60.50;30.75;;;-3274.70;85.30;;;;;;5095603;28;20024;-58
2022/12/15 16:59:02;;;;;;;71.15;34.08;;;-3274.70;85.50;;;;;;5097796;28;20195;-61
2022/12/15 17:01:28;;;;;;;74.20;34.10;;;-3274.70;85.40;;;;;;5099231;28;20127;-56
2022/12/15 17:03:53;;;;;;;70.05;34.10;;;-3274.70;85.30;;;;;;5098329;28;20030;-60
2022/12/15 17:06:19;;;;;;;79.03;37.65;;;-3274.70;85.50;;;;;;5098555;28;20020;-56
2022/12/15 17:08:55;;;;;;;76.78;35.63;;;-3274.70;85.40;;;;;;5097278;28;20024;-60
2022/12/15 17:11:23;;;;;;;74.78;37.67;;;-3274.60;85.30;;;;;;5096924;28;20095;-58
2022/12/15 17:13:52;;;;;;;85.07;36.67;;;-3274.70;85.90;;;;;;5095518;28;20387;-59
2022/12/15 17:16:19;;;;;;;71.68;36.15;;;-3274.70;85.40;;;;;;5097048;28;20035;-54
2022/12/15 17:18:45;;;;;;;70.28;33.65;;;-3274.60;85.30;;;;;;5096294;28;20039;-58
2022/12/15 17:21:33;;;;;;;68.70;34.55;;;-3274.60;85.50;;;;;;5097500;28;20020;-59
2022/12/15 17:24:04;;;;;;;74.53;34.58;;;-3274.50;85.70;;;;;;5096235;28;20052;-59
2022/12/15 17:26:34;;;;;;;85.65;36.13;;;-3274.50;85.80;;;;;;5094353;28;20081;-60
2022/12/15 17:29:26;;;;;;;83.63;36.40;;;-3274.60;86.10;;;;;;5094398;28;20016;-59
2022/12/15 17:31:51;;;;;;;78.28;35.40;;;-3274.60;85.90;;;;;;5094066;28;20036;-58
2022/12/15 17:34:27;;;;;;;75.43;36.38;;;-3274.60;86.00;;;;;;5096431;28;20369;-54
2022/12/15 17:36:53;;;;;;;98.70;41.67;;;-3274.50;86.10;;;;;;5097089;28;20126;-57
2022/12/15 17:39:21;;;;;;;92.05;42.15;;;-3274.50;86.30;;;;;;5096392;28;20162;-60
2022/12/15 17:41:50;;;;;;;104.78;43.92;;;-3274.70;86.30;;;;;;5093527;28;20114;-56
2022/12/15 17:44:25;;;;;;;95.80;43.13;;;-3274.70;85.90;;;;;;5095169;28;20027;-57
2022/12/15 17:46:51;;;;;;;96.45;41.22;;;-3274.50;85.70;;;;;;5093994;28;20483;-60
2022/12/15 17:49:20;;;;;;;94.70;43.42;;;-3274.40;85.90;;;;;;5096001;28;20104;-59
2022/12/15 17:51:47;;;;;;;87.53;40.28;;;-3274.40;86.20;;;;;;5094826;28;20475;-56
2022/12/15 17:54:14;;;;;;;84.88;37.13;;;-3274.40;86.30;;;;;;5093851;28;20047;-59
2022/12/15 17:56:42;;;;;;;88.72;40.60;;;-3274.30;86.30;;;;;;5095344;28;20471;-58
2022/12/15 17:59:16;;;;;;;83.18;40.72;;;-3274.20;86.40;;;;;;5095581;28;20113;-59
2022/12/15 18:01:42;;;;;;;90.70;36.05;;;-3274.40;86.60;;;;;;5093689;28;20104;-58
2022/12/15 18:04:11;;;;;;;85.13;40.60;;;-3274.40;86.40;;;;;;5095002;28;20051;-57
2022/12/15 18:06:38;;;;;;;73.53;37.03;;;-3274.30;86.40;;;;;;5095027;28;20024;-58
2022/12/15 18:09:11;;;;;;;95.85;38.03;;;-3274.40;86.50;;;;;;5093347;28;20051;-59
2022/12/15 18:11:37;;;;;;;91.97;40.58;;;-3274.30;86.30;;;;;;5094452;28;20102;-59
2022/12/15 18:14:03;;;;;;;90.45;38.42;;;-3274.20;86.40;;;;;;5094686;28;20058;-58
2022/12/15 18:16:28;;;;;;;91.15;38.28;;;-3274.20;86.40;;;;;;5093809;28;20020;-57
2022/12/15 18:18:54;;;;;;;86.80;36.72;;;-3274.10;86.60;;;;;;5094159;28;20028;-58
2022/12/15 18:21:20;;;;;;;91.47;37.83;;;-3274.10;86.70;;;;;;5092219;28;20020;-55
2022/12/15 18:23:46;;;;;;;91.72;38.70;;;-3274.20;86.90;;;;;;5092072;28;20016;-58
2022/12/15 18:26:13;;;;;;;86.25;40.50;;;-3274.20;86.80;;;;;;5092482;28;20028;-54
2022/12/15 18:28:38;;;;;;;80.22;36.45;;;-3274.20;87.00;;;;;;5091868;28;20032;-57
2022/12/15 18:31:24;;;;;;;86.45;37.33;;;-3274.20;87.00;;;;;;5093487;28;20035;-56
2022/12/15 18:33:51;;;;;;;95.43;41.08;;;-3274.20;87.40;;;;;;5093575;28;20020;-56
2022/12/15 18:36:17;;;;;;;89.75;35.50;;;-3274.40;87.10;;;;;;5092954;28;20036;-56
2022/12/15 18:38:43;;;;;;;84.10;35.55;;;-3274.40;86.70;;;;;;5093578;28;20024;-58
2022/12/15 18:41:12;;;;;;;83.47;37.42;;;-3274.20;86.80;;;;;;5093308;28;20028;-59
2022/12/15 18:43:40;;;;;;;81.15;34.35;;;-3274.10;87.00;;;;;;5092003;28;20024;-58
2022/12/15 18:46:14;;;;;;;92.18;39.38;;;-3274.00;87.20;;;;;;5093298;28;20016;-61
2022/12/15 18:48:41;;;;;;;89.85;37.22;;;-3274.10;87.60;;;;;;5093415;28;20028;-58
2022/12/15 18:51:19;;;;;;;90.50;38.67;;;-3274.10;87.60;;;;;;5091898;28;20080;-56
2022/12/15 18:53:47;;;;;;;91.82;36.00;;;-3274.20;87.90;;;;;;5092740;28;20042;-58
2022/12/15 18:56:15;;;;;;;101.28;39.80;;;-3274.40;87.60;;;;;;5092641;28;20062;-61
2022/12/15 18:58:41;;;;;;;87.00;37.28;;;-3274.50;87.50;;;;;;5093250;28;20028;-56
2022/12/15 19:01:07;;;;;;;82.65;37.05;;;-3274.50;87.20;;;;;;5092554;28;20127;-58
2022/12/15 19:03:34;;;;;;;99.35;40.45;;;-3274.40;86.80;;;;;;5093024;28;20047;-56
2022/12/15 19:06:09;;;;;;;87.43;40.13;;;-3274.40;87.10;;;;;;5092170;28;20542;-57
2022/12/15 19:08:37;;;;;;;105.75;41.78;;;-3274.30;87.30;;;;;;5092925;28;20044;-56
2022/12/15 19:11:17;;;;;;;100.32;39.22;;;-3274.40;87.40;;;;;;5091436;28;20479;-55
2022/12/15 19:13:43;;;;;;;86.93;37.75;;;-3274.20;86.90;;;;;;5092853;28;20020;-60
2022/12/15 19:16:18;;;;;;;109.68;38.10;;;-3274.10;87.10;;;;;;5090981;28;20024;-57
2022/12/15 19:27:22;;;;;;;130.52;54.83;;;-3274.00;87.40;;;;;;5093425;28;20125;-56
2022/12/15 19:29:49;;;;;;;119.53;49.92;;;-3273.90;87.20;;;;;;5093752;28;20016;-58
2022/12/15 19:32:18;;;;;;;128.18;53.53;;;-3273.80;87.20;;;;;;5092247;28;20028;-60
2022/12/15 19:34:44;;;;;;;174.60;65.72;;;-3273.70;87.20;;;;;;5093303;28;20028;-56
2022/12/15 19:37:28;;;;;;;133.85;56.45;;;-3273.70;87.10;;;;;;5091291;28;20395;-60
2022/12/15 19:39:56;;;;;;;129.90;55.63;;;-3273.60;86.90;;;;;;5093040;28;20028;-58
2022/12/15 19:42:29;;;;;;;118.25;47.60;;;-3273.40;86.80;;;;;;5092520;28;20424;-57
2022/12/15 19:44:55;;;;;;;119.60;51.00;;;-3273.50;87.10;;;;;;5092534;28;20025;-59
2022/12/15 19:47:20;;;;;;;125.32;51.78;;;-3273.50;86.90;;;;;;5092761;28;20371;-56
2022/12/15 19:49:46;;;;;;;116.10;48.58;;;-3273.50;86.80;;;;;;5095936;28;20023;-56
2022/12/15 19:52:14;;;;;;;113.53;46.25;;;-3273.50;86.90;;;;;;5096411;28;20116;-56
2022/12/15 19:54:41;;;;;;;113.00;48.15;;;-3273.60;86.90;;;;;;5096624;28;20131;-58
2022/12/15 19:57:26;;;;;;;116.28;49.20;;;-3273.70;86.90;;;;;;5096294;28;20062;-57
2022/12/15 19:59:52;;;;;;;113.70;48.30;;;-3273.60;86.70;;;;;;5095533;28;20045;-55
2022/12/15 20:02:19;;;;;;;126.30;47.47;;;-3273.40;86.60;;;;;;5095455;28;20048;-57
2022/12/15 20:04:46;;;;;;;137.40;55.95;;;-3273.40;87.00;;;;;;5094620;28;20413;-58
2022/12/15 20:07:18;;;;;;;136.13;51.97;;;-3273.50;87.30;;;;;;5096144;28;20030;-58
2022/12/15 20:09:43;;;;;;;115.40;49.50;;;-3273.50;87.10;;;;;;5096237;28;20024;-58
2022/12/15 20:12:16;;;;;;;128.60;50.47;;;-3273.60;87.00;;;;;;5095908;28;20024;-56
2022/12/15 20:14:42;;;;;;;120.28;49.00;;;-3273.50;86.80;;;;;;5096564;28;20414;-59
2022/12/15 20:17:07;;;;;;;118.40;50.25;;;-3273.30;86.80;;;;;;5096422;28;20028;-57
2022/12/15 20:19:36;;;;;;;110.68;46.28;;;-3273.30;87.10;;;;;;5096062;28;20032;-55
2022/12/15 20:22:03;;;;;;;122.53;51.75;;;-3273.20;87.30;;;;;;5096773;28;20095;-56
2022/12/15 20:24:31;;;;;;;129.60;55.78;;;-3273.10;87.30;;;;;;5096023;28;20020;-56
2022/12/15 20:26:57;;;;;;;119.90;52.63;;;-3273.10;87.60;;;;;;5094730;28;20016;-58
2022/12/15 20:29:30;;;;;;;130.27;58.13;;;-3273.00;87.40;;;;;;5095904;28;20016;-57
2022/12/15 20:31:57;;;;;;;128.25;55.15;;;-3273.00;87.30;;;;;;5095927;28;20028;-54
2022/12/15 20:34:23;;;;;;;143.52;58.00;;;-3273.00;87.20;;;;;;5095893;28;20383;-54
2022/12/15 20:36:49;;;;;;;157.10;61.42;;;-3272.80;87.20;;;;;;5096007;28;20502;-58
2022/12/15 20:39:25;;;;;;;154.65;62.75;;;-3272.90;87.50;;;;;;5095785;28;20024;-55
2022/12/15 20:41:52;;;;;;;126.20;57.08;;;-3272.90;87.60;;;;;;5095036;28;20028;-62
2022/12/15 20:44:18;;;;;;;154.80;68.47;;;-3272.90;87.60;;;;;;5096147;28;20436;-63
2022/12/15 20:46:44;;;;;;;146.93;63.92;;;-3273.00;87.60;;;;;;5095367;28;20099;-63
2022/12/15 20:49:16;;;;;;;153.85;65.32;;;-3273.00;87.50;;;;;;5095399;28;20021;-62
2022/12/15 20:51:43;;;;;;;162.60;65.93;;;-3273.00;87.40;;;;;;5095564;28;20032;-62
2022/12/15 20:54:17;;;;;;;147.73;60.92;;;-3272.80;87.30;;;;;;5095178;28;20024;-62
2022/12/15 20:56:43;;;;;;;134.30;62.60;;;-3272.80;87.80;;;;;;5093991;28;20032;-62
2022/12/15 20:59:10;;;;;;;159.55;68.93;;;-3273.00;88.10;;;;;;5095580;28;20020;-56
